Flight Number: EUR2067 Duration: 2:00
Departure: Munich Int'l (EDDM) at 07:00 Distance: 748 Nm
Arrival: Dublin Airport (EIDW) at 09:00 Equipment: MD-81

Weather Information
Munchen, Germany (EDDM) 48-21N 011-47E Oct 19, 2018 - 02:20 PM EDT / 2018.10.19 1820 UTC
Wind: Variable at 2 MPH (2 KT):0
Visibility: 5 mile(s):0 Temperature: 46 F (8 C) Dew Point: 44 F (7 C) Relative Humidity: 93% Pressure (altimeter): 30.21 in. Hg (1023 hPa)
ob: EDDM 191820Z VRB02KT 9000 NSC 08/07 Q1023 NOSIG cycle: 18
Sunrise: 05:42 Sunset: 16:12 (UTC)

Dublin Airport, Ireland (EIDW) 53-26N 006-15W 85M Oct 19, 2018 - 02:00 PM EDT / 2018.10.19 1800 UTC
Wind: from the SW (230 degrees) at 5 MPH (4 KT) (direction variable):0
Visibility: greater than 7 mile(s):0
Sky conditions: partly cloudy Temperature: 53 F (12 C) Dew Point: 48 F (9 C) Relative Humidity: 81% Pressure (altimeter): 30.27 in. Hg (1025 hPa)
ob: EIDW 191800Z 23004KT 200V260 9999 FEW020 SCT200 12/09 Q1025 NOSIG cycle: 18
Sunrise: 07:04 Sunset: 17:15 (UTC)

TAF:2018/10/19 18:11 TAF EIDW 191700Z 1918/2018 21007KT 9999 FEW018 BKN025 TEMPO 1922/2001 VRB03KT BECMG 2004/2007 22010KT

Previous Pireps for this route
Date Aircraft Flight time Fuel used Landing rate On time
2012-10-06MD-8102.2715716-346No
2012-10-18MD-8102.3415663-501No
2013-11-27MD-8101.5712400-50Yes
2014-10-26A32102.2815259-74Charter
2015-07-20MD-8102.3415148-107Yes
(pireps marked green are flown by you)

Route map